createdAt,value
2018-01-05T00:00:54.820Z,807.34
2018-01-05T00:01:54.825Z,807.30
2018-01-05T00:02:54.836Z,807.36
2018-01-05T00:03:54.835Z,807.35
2018-01-05T00:04:54.849Z,807.36
2018-01-05T00:05:54.854Z,807.40
2018-01-05T00:06:54.862Z,807.46
2018-01-05T00:07:54.869Z,807.43
2018-01-05T00:08:54.875Z,807.42
2018-01-05T00:09:54.879Z,807.42
2018-01-05T00:10:54.882Z,807.41
2018-01-05T00:11:54.892Z,807.45
2018-01-05T00:12:54.898Z,807.48
2018-01-05T00:13:54.910Z,807.52
2018-01-05T00:14:54.920Z,807.49
2018-01-05T00:15:54.927Z,807.47
2018-01-05T00:16:54.935Z,807.46
2018-01-05T00:17:54.939Z,807.51
2018-01-05T00:18:54.947Z,807.54
2018-01-05T00:19:54.948Z,807.51
2018-01-05T00:20:54.965Z,807.48
2018-01-05T00:21:54.968Z,807.44
2018-01-05T00:22:54.975Z,807.40
2018-01-05T00:23:54.977Z,807.42
2018-01-05T00:24:54.991Z,807.42
2018-01-05T00:25:54.998Z,807.43
2018-01-05T00:26:55.000Z,807.43
2018-01-05T00:27:55.012Z,807.52
2018-01-05T00:28:55.016Z,807.51
2018-01-05T00:29:55.025Z,807.36
2018-01-05T00:30:55.029Z,807.37
2018-01-05T00:31:55.042Z,807.30
2018-01-05T00:32:55.049Z,807.22
2018-01-05T00:33:55.058Z,807.13
2018-01-05T00:34:55.065Z,807.12
2018-01-05T00:35:55.067Z,807.09
2018-01-05T00:36:55.080Z,807.03
2018-01-05T00:37:55.088Z,806.96
2018-01-05T00:38:55.095Z,806.97
2018-01-05T00:39:55.101Z,807.04
2018-01-05T00:40:55.107Z,807.04
2018-01-05T00:41:55.119Z,807.09
2018-01-05T00:42:55.124Z,807.10
2018-01-05T00:43:55.135Z,807.05
2018-01-05T00:44:55.134Z,807.13
2018-01-05T00:45:55.143Z,807.23
2018-01-05T00:46:55.156Z,807.17
2018-01-05T00:47:55.159Z,807.11
2018-01-05T00:48:55.166Z,807.10
2018-01-05T00:49:55.178Z,807.14
2018-01-05T00:50:55.187Z,807.17
2018-01-05T00:51:55.188Z,807.14
2018-01-05T00:52:55.201Z,807.22
2018-01-05T00:53:55.207Z,807.19
2018-01-05T00:54:55.217Z,807.21
2018-01-05T00:55:55.223Z,807.29
2018-01-05T00:56:55.225Z,807.30
2018-01-05T00:57:55.240Z,807.29
2018-01-05T00:58:55.245Z,807.33
2018-01-05T00:59:55.249Z,807.55
2018-01-05T01:00:55.262Z,807.48
2018-01-05T01:01:55.269Z,807.47
2018-01-05T01:02:55.273Z,807.54
2018-01-05T01:03:55.279Z,807.53
2018-01-05T01:04:55.285Z,807.58
2018-01-05T01:05:55.298Z,807.67
2018-01-05T01:06:55.301Z,807.62
2018-01-05T01:07:55.313Z,807.57
2018-01-05T01:08:55.316Z,807.55
2018-01-05T01:09:55.325Z,807.43
2018-01-05T01:10:55.331Z,807.44
2018-01-05T01:11:55.339Z,807.44
2018-01-05T01:12:55.351Z,807.51
2018-01-05T01:13:55.352Z,807.50
2018-01-05T01:14:55.365Z,807.38
2018-01-05T01:15:55.372Z,807.42
2018-01-05T01:16:55.377Z,807.42
2018-01-05T01:17:55.389Z,807.48
2018-01-05T01:18:55.392Z,807.51
2018-01-05T01:19:55.396Z,807.52
2018-01-05T01:20:55.402Z,807.40
2018-01-05T01:21:55.417Z,807.35
2018-01-05T01:22:55.425Z,807.30
2018-01-05T01:23:55.430Z,807.21
2018-01-05T01:24:55.432Z,807.20
2018-01-05T01:25:55.446Z,807.18
2018-01-05T01:26:55.454Z,807.20
2018-01-05T01:27:55.459Z,807.14
2018-01-05T01:28:55.463Z,807.25
2018-01-05T01:29:55.476Z,807.25
2018-01-05T01:30:55.475Z,807.16
2018-01-05T01:31:55.487Z,807.14
2018-01-05T01:32:55.489Z,807.19
2018-01-05T01:33:55.504Z,807.24
2018-01-05T01:34:55.507Z,807.21
2018-01-05T01:35:55.514Z,807.20
2018-01-05T01:36:55.526Z,807.15
2018-01-05T01:37:55.529Z,807.13
2018-01-05T01:38:55.534Z,807.15
2018-01-05T01:39:55.542Z,807.25
2018-01-05T01:40:55.549Z,807.27
2018-01-05T01:41:55.556Z,807.17
2018-01-05T01:42:55.569Z,807.21
2018-01-05T01:43:55.574Z,807.25
2018-01-05T01:44:55.602Z,807.20
2018-01-05T01:45:55.585Z,807.30
2018-01-05T01:46:55.592Z,807.27
2018-01-05T01:47:55.602Z,807.51
2018-01-05T01:48:55.615Z,807.48
2018-01-05T01:49:55.620Z,807.48
2018-01-05T01:50:55.627Z,807.46
2018-01-05T01:51:55.634Z,807.47
2018-01-05T01:52:55.639Z,807.52
2018-01-05T01:53:55.647Z,807.54
2018-01-05T01:54:55.651Z,807.57
2018-01-05T01:55:55.658Z,807.45
2018-01-05T01:56:55.671Z,807.54
2018-01-05T01:57:55.676Z,807.52
2018-01-05T01:58:55.682Z,807.52
2018-01-05T01:59:55.693Z,807.52
2018-01-05T02:00:55.700Z,807.47
2018-01-05T02:01:55.707Z,807.44
2018-01-05T02:02:55.709Z,807.47
2018-01-05T02:03:55.721Z,807.45
2018-01-05T02:04:55.741Z,807.48
2018-01-05T02:05:55.731Z,807.42
2018-01-05T02:06:55.739Z,807.37
2018-01-05T02:07:55.751Z,807.45
2018-01-05T02:08:55.752Z,807.47
2018-01-05T02:09:55.765Z,807.40
2018-01-05T02:10:55.821Z,807.33
2018-01-05T02:11:55.781Z,807.09
2018-01-05T02:12:55.787Z,807.32
2018-01-05T02:13:55.794Z,807.33
2018-01-05T02:14:55.803Z,807.31
2018-01-05T02:15:55.804Z,807.17
2018-01-05T02:16:55.816Z,807.20
2018-01-05T02:17:55.818Z,807.27
2018-01-05T02:18:55.824Z,807.26
2018-01-05T02:19:55.839Z,807.26
2018-01-05T02:20:55.851Z,807.35
2018-01-05T02:21:55.852Z,807.38
2018-01-05T02:22:55.860Z,807.41
2018-01-05T02:23:55.869Z,807.45
2018-01-05T02:24:55.872Z,807.37
2018-01-05T02:25:55.885Z,807.46
2018-01-05T02:26:55.891Z,807.64
2018-01-05T02:27:55.897Z,807.51
2018-01-05T02:28:55.900Z,807.53
2018-01-05T02:29:55.910Z,807.68
2018-01-05T02:30:55.920Z,807.54
2018-01-05T02:31:55.928Z,807.49
2018-01-05T02:32:55.934Z,807.38
2018-01-05T02:33:55.936Z,807.33
2018-01-05T02:34:55.945Z,807.27
2018-01-05T02:35:56.108Z,807.27
2018-01-05T02:36:55.960Z,807.27
2018-01-05T02:37:55.967Z,807.31
2018-01-05T02:38:56.096Z,807.28
2018-01-05T02:39:55.983Z,807.39
2018-01-05T02:40:55.988Z,807.40
2018-01-05T02:41:55.997Z,807.43
2018-01-05T02:42:56.010Z,807.30
2018-01-05T02:43:56.012Z,807.34
2018-01-05T02:44:56.017Z,807.42
2018-01-05T02:45:56.030Z,807.62
2018-01-05T02:46:56.037Z,807.63
2018-01-05T02:47:56.044Z,807.56
2018-01-05T02:48:56.056Z,807.42
2018-01-05T02:49:56.159Z,807.50
2018-01-05T02:50:56.068Z,807.47
2018-01-05T02:51:56.074Z,807.37
2018-01-05T02:52:56.083Z,807.35
2018-01-05T02:53:56.132Z,807.62
2018-01-05T02:54:56.097Z,807.45
2018-01-05T02:55:56.104Z,807.38
2018-01-05T02:56:56.106Z,807.36
2018-01-05T02:57:56.113Z,807.21
2018-01-05T02:58:56.122Z,807.21
2018-01-05T02:59:56.135Z,807.21
2018-01-05T03:00:56.143Z,807.17
2018-01-05T03:01:56.142Z,807.14
2018-01-05T03:02:56.149Z,807.18
2018-01-05T03:03:56.163Z,807.18
2018-01-05T03:04:56.171Z,807.16
2018-01-05T03:05:56.175Z,807.14
2018-01-05T03:06:56.185Z,807.15
2018-01-05T03:07:56.194Z,807.23
2018-01-05T03:08:56.194Z,807.25
2018-01-05T03:09:56.202Z,807.27
2018-01-05T03:10:56.214Z,807.23
2018-01-05T03:11:56.223Z,807.24
2018-01-05T03:12:56.225Z,807.18
2018-01-05T03:13:56.234Z,807.22
2018-01-05T03:14:56.239Z,807.16
2018-01-05T03:15:56.248Z,807.07
2018-01-05T03:16:56.256Z,807.11
2018-01-05T03:17:56.262Z,807.20
2018-01-05T03:18:56.270Z,807.14
2018-01-05T03:19:56.275Z,807.14
2018-01-05T03:20:56.291Z,807.05
2018-01-05T03:21:56.299Z,806.92
2018-01-05T03:22:56.300Z,806.97
2018-01-05T03:23:56.357Z,806.93
2018-01-05T03:24:56.321Z,806.84
2018-01-05T03:25:56.328Z,806.85
2018-01-05T03:26:56.329Z,806.82
2018-01-05T03:27:56.343Z,806.93
2018-01-05T03:28:56.353Z,806.84
2018-01-05T03:29:56.357Z,806.86
2018-01-05T03:30:56.369Z,806.95
2018-01-05T03:31:56.372Z,806.87
2018-01-05T03:32:56.376Z,806.76
2018-01-05T03:33:56.385Z,806.77
2018-01-05T03:34:56.391Z,806.82
2018-01-05T03:35:56.404Z,806.77
2018-01-05T03:36:56.414Z,806.69
2018-01-05T03:37:56.420Z,806.71
2018-01-05T03:38:56.426Z,806.71
2018-01-05T03:39:56.436Z,806.61
2018-01-05T03:40:56.438Z,806.53
2018-01-05T03:41:56.445Z,806.54
2018-01-05T03:42:56.455Z,806.58
2018-01-05T03:43:56.460Z,806.55
2018-01-05T03:44:56.473Z,806.60
2018-01-05T03:45:56.483Z,806.54
2018-01-05T03:46:56.484Z,806.64
2018-01-05T03:47:56.491Z,806.63
2018-01-05T03:48:56.498Z,806.57
2018-01-05T03:49:56.514Z,806.53
2018-01-05T03:50:56.514Z,806.52
2018-01-05T03:51:56.525Z,806.52
2018-01-05T03:52:56.530Z,806.48
2018-01-05T03:53:56.538Z,806.41
2018-01-05T03:54:56.545Z,806.39
2018-01-05T03:55:56.554Z,806.43
2018-01-05T03:56:56.562Z,806.45
2018-01-05T03:57:56.570Z,806.42
2018-01-05T03:58:56.576Z,806.48
2018-01-05T03:59:56.585Z,806.54
2018-01-05T04:00:56.601Z,806.54
2018-01-05T04:01:56.602Z,806.51
2018-01-05T04:02:56.616Z,806.51
2018-01-05T04:03:56.622Z,806.50
2018-01-05T04:04:56.630Z,806.55
2018-01-05T04:05:56.637Z,806.56
2018-01-05T04:06:56.637Z,806.54
2018-01-05T04:07:56.652Z,806.60
2018-01-05T04:08:56.655Z,806.56
2018-01-05T04:09:56.661Z,806.60
2018-01-05T04:10:56.674Z,806.59
2018-01-05T04:11:56.677Z,806.47
2018-01-05T04:12:56.710Z,806.35
2018-01-05T04:13:56.698Z,806.43
2018-01-05T04:14:56.707Z,806.48
2018-01-05T04:15:56.708Z,806.43
2018-01-05T04:16:56.728Z,806.72
2018-01-05T04:17:56.729Z,806.65
2018-01-05T04:18:56.732Z,806.67
2018-01-05T04:19:56.740Z,806.80
2018-01-05T04:20:56.748Z,806.67
2018-01-05T04:21:56.761Z,806.66
2018-01-05T04:22:56.766Z,806.71
2018-01-05T04:23:56.779Z,806.79
2018-01-05T04:24:56.776Z,806.84
2018-01-05T04:25:56.789Z,806.82
2018-01-05T04:26:56.800Z,806.77
2018-01-05T04:27:56.804Z,806.73
2018-01-05T04:28:56.807Z,806.62
2018-01-05T04:29:56.812Z,806.52
2018-01-05T04:30:56.820Z,806.60
2018-01-05T04:31:56.833Z,806.53
2018-01-05T04:32:56.834Z,806.51
2018-01-05T04:33:56.843Z,806.62
2018-01-05T04:34:56.853Z,806.56
2018-01-05T04:35:56.861Z,806.57
2018-01-05T04:36:56.864Z,806.54
2018-01-05T04:37:56.879Z,806.63
2018-01-05T04:38:56.884Z,806.70
2018-01-05T04:39:56.891Z,806.65
2018-01-05T04:40:56.893Z,806.54
2018-01-05T04:41:56.900Z,806.59
2018-01-05T04:42:56.907Z,806.54
2018-01-05T04:43:56.915Z,806.45
2018-01-05T04:44:56.928Z,806.50
2018-01-05T04:45:56.928Z,806.65
2018-01-05T04:46:56.937Z,806.56
2018-01-05T04:47:56.949Z,806.59
2018-01-05T04:48:56.962Z,806.67
2018-01-05T04:49:56.958Z,806.74
2018-01-05T04:50:56.971Z,806.77
2018-01-05T04:51:56.974Z,806.66
2018-01-05T04:52:56.979Z,806.54
2018-01-05T04:53:56.988Z,806.54
2018-01-05T04:54:56.994Z,806.57
2018-01-05T04:55:57.003Z,806.55
2018-01-05T04:56:57.015Z,806.60
2018-01-05T04:57:57.020Z,806.61
2018-01-05T04:58:57.023Z,806.59
2018-01-05T04:59:57.029Z,806.56
2018-01-05T05:00:57.039Z,806.47
2018-01-05T05:01:57.050Z,806.42
2018-01-05T05:02:57.053Z,806.41
2018-01-05T05:03:57.064Z,806.52
2018-01-05T05:04:57.064Z,806.60
2018-01-05T05:05:57.078Z,806.58
2018-01-05T05:06:57.085Z,806.48
2018-01-05T05:07:57.087Z,806.42
2018-01-05T05:08:57.102Z,806.48
2018-01-05T05:09:57.108Z,806.53
2018-01-05T05:10:57.109Z,806.47
2018-01-05T05:11:57.116Z,806.47
2018-01-05T05:12:57.124Z,806.48
2018-01-05T05:13:57.137Z,806.47
2018-01-05T05:14:57.140Z,806.46
2018-01-05T05:15:57.151Z,806.46
2018-01-05T05:16:57.152Z,806.44
2018-01-05T05:17:57.172Z,806.49
2018-01-05T05:18:57.167Z,806.41
2018-01-05T05:19:57.222Z,806.44
2018-01-05T05:20:57.185Z,806.39
2018-01-05T05:21:57.195Z,806.38
2018-01-05T05:22:57.196Z,806.35
2018-01-05T05:23:57.212Z,806.30
2018-01-05T05:24:57.217Z,806.24
2018-01-05T05:25:57.224Z,806.20
2018-01-05T05:26:57.225Z,806.22
2018-01-05T05:27:57.233Z,806.16
2018-01-05T05:28:57.242Z,806.16
2018-01-05T05:29:57.249Z,806.12
2018-01-05T05:30:57.254Z,806.18
2018-01-05T05:31:57.270Z,806.21
2018-01-05T05:32:57.271Z,806.16
2018-01-05T05:33:57.285Z,806.10
2018-01-05T05:34:57.286Z,806.17
2018-01-05T05:35:57.301Z,806.24
2018-01-05T05:36:57.303Z,806.23
2018-01-05T05:37:57.315Z,806.20
2018-01-05T05:38:57.323Z,806.16
2018-01-05T05:39:57.325Z,806.15
2018-01-05T05:40:57.339Z,806.15
2018-01-05T05:41:57.346Z,806.22
2018-01-05T05:42:57.348Z,806.25
2018-01-05T05:43:57.363Z,806.23
2018-01-05T05:44:57.372Z,806.27
2018-01-05T05:45:57.374Z,806.26
2018-01-05T05:46:57.386Z,806.25
2018-01-05T05:47:57.393Z,806.19
2018-01-05T05:48:57.403Z,806.19
2018-01-05T05:49:57.404Z,806.11
2018-01-05T05:50:57.410Z,806.11
2018-01-05T05:51:57.420Z,806.08
2018-01-05T05:52:57.433Z,806.07
2018-01-05T05:53:57.436Z,806.00
2018-01-05T05:54:57.448Z,805.91
2018-01-05T05:55:57.457Z,805.95
2018-01-05T05:56:57.459Z,805.87
2018-01-05T05:57:57.473Z,805.89
2018-01-05T05:58:57.476Z,805.86
2018-01-05T05:59:57.487Z,805.87
2018-01-05T06:00:57.496Z,805.89
2018-01-05T06:01:57.504Z,805.97
2018-01-05T06:02:57.513Z,805.98
2018-01-05T06:03:57.520Z,805.99
2018-01-05T06:04:57.523Z,806.00
2018-01-05T06:05:57.576Z,806.00
2018-01-05T06:06:57.546Z,805.98
2018-01-05T06:07:57.552Z,806.01
2018-01-05T06:08:57.555Z,805.97
2018-01-05T06:09:57.567Z,805.98
2018-01-05T06:10:57.578Z,805.98
2018-01-05T06:11:57.578Z,805.99
2018-01-05T06:12:57.586Z,805.98
2018-01-05T06:13:57.603Z,805.98
2018-01-05T06:14:57.606Z,805.92
2018-01-05T06:15:57.614Z,805.89
2018-01-05T06:16:57.624Z,805.89
2018-01-05T06:17:57.632Z,805.92
2018-01-05T06:18:57.634Z,805.95
2018-01-05T06:19:57.647Z,805.99
2018-01-05T06:20:57.690Z,805.96
2018-01-05T06:21:57.664Z,805.89
2018-01-05T06:22:57.668Z,805.86
2018-01-05T06:23:57.674Z,805.86
2018-01-05T06:24:57.682Z,805.85
2018-01-05T06:25:57.695Z,805.82
2018-01-05T06:26:57.696Z,805.81
2018-01-05T06:27:57.713Z,805.75
2018-01-05T06:28:57.721Z,805.75
2018-01-05T06:29:57.724Z,805.75
2018-01-05T06:30:57.788Z,805.72
2018-01-05T06:31:57.735Z,805.73
2018-01-05T06:32:57.748Z,805.76
2018-01-05T06:33:57.753Z,805.72
2018-01-05T06:34:57.766Z,805.66
2018-01-05T06:35:57.767Z,805.61
2018-01-05T06:36:57.775Z,805.62
2018-01-05T06:37:57.789Z,805.62
2018-01-05T06:38:57.791Z,805.63
2018-01-05T06:39:57.796Z,805.66
2018-01-05T06:40:57.916Z,805.60
2018-01-05T06:41:57.820Z,805.63
2018-01-05T06:42:57.822Z,805.61
2018-01-05T06:43:57.831Z,805.60
2018-01-05T06:44:57.838Z,805.62
2018-01-05T06:45:57.851Z,805.58
2018-01-05T06:46:57.862Z,805.56
2018-01-05T06:47:57.860Z,805.53
2018-01-05T06:48:57.879Z,805.47
2018-01-05T06:49:57.877Z,805.52
2018-01-05T06:50:57.882Z,805.54
2018-01-05T06:51:57.891Z,805.52
2018-01-05T06:52:57.906Z,805.52
2018-01-05T06:53:57.907Z,805.53
2018-01-05T06:54:58.074Z,805.51
2018-01-05T06:55:57.928Z,805.52
2018-01-05T06:56:57.940Z,805.53
2018-01-05T06:57:57.939Z,805.54
2018-01-05T06:58:57.945Z,805.57
2018-01-05T06:59:57.960Z,805.57
2018-01-05T07:00:57.964Z,805.56
2018-01-05T07:01:57.977Z,805.57
2018-01-05T07:02:57.982Z,805.52
2018-01-05T07:03:57.985Z,805.53
2018-01-05T07:04:57.993Z,805.55
2018-01-05T07:05:58.008Z,805.52
2018-01-05T07:06:58.013Z,805.55
2018-01-05T07:07:58.024Z,805.47
2018-01-05T07:08:58.071Z,805.43
2018-01-05T07:09:58.034Z,805.45
2018-01-05T07:10:58.047Z,805.34
2018-01-05T07:11:58.165Z,805.36
2018-01-05T07:12:58.062Z,805.34
2018-01-05T07:13:58.066Z,805.39
2018-01-05T07:14:58.228Z,805.40
2018-01-05T07:15:58.080Z,805.40
2018-01-05T07:16:58.095Z,805.41
2018-01-05T07:17:58.206Z,805.37
2018-01-05T07:18:58.109Z,805.41
2018-01-05T07:19:58.117Z,805.43
2018-01-05T07:20:58.124Z,805.38
2018-01-05T07:21:58.127Z,805.40
2018-01-05T07:22:58.141Z,805.36
2018-01-05T07:23:58.147Z,805.39
2018-01-05T07:24:58.152Z,805.44
2018-01-05T07:25:58.166Z,805.41
2018-01-05T07:26:58.211Z,805.41
2018-01-05T07:27:58.175Z,805.39
2018-01-05T07:28:58.301Z,805.36
2018-01-05T07:29:58.192Z,805.35
2018-01-05T07:30:58.206Z,805.39
2018-01-05T07:31:58.207Z,805.41
2018-01-05T07:32:58.222Z,805.47
2018-01-05T07:33:58.230Z,805.48
2018-01-05T07:34:58.233Z,805.45
2018-01-05T07:35:58.246Z,805.44
2018-01-05T07:36:58.247Z,805.48
2018-01-05T07:37:58.262Z,805.41
2018-01-05T07:38:58.264Z,805.43
2018-01-05T07:39:58.272Z,805.48
2018-01-05T07:40:58.285Z,805.51
2018-01-05T07:41:58.294Z,805.53
2018-01-05T07:42:58.306Z,805.58
2018-01-05T07:43:58.428Z,805.61
2018-01-05T07:44:58.311Z,805.61
2018-01-05T07:45:58.329Z,805.60
2018-01-05T07:46:58.327Z,805.59
2018-01-05T07:47:58.436Z,805.57
2018-01-05T07:48:58.350Z,805.56
2018-01-05T07:49:58.359Z,805.51
2018-01-05T07:50:58.360Z,805.48
2018-01-05T07:51:58.376Z,805.48
2018-01-05T07:52:58.383Z,805.46
2018-01-05T07:53:58.385Z,805.46
2018-01-05T07:54:58.392Z,805.47
2018-01-05T07:55:58.401Z,805.50
2018-01-05T07:56:58.414Z,805.49
2018-01-05T07:57:58.419Z,805.49
2018-01-05T07:58:58.425Z,805.51
2018-01-05T07:59:58.513Z,805.52
2018-01-05T08:00:58.447Z,805.51
2018-01-05T08:01:58.455Z,805.52
2018-01-05T08:02:58.457Z,805.50
2018-01-05T08:03:58.471Z,805.51
2018-01-05T08:04:58.478Z,805.54
2018-01-05T08:05:58.486Z,805.60
2018-01-05T08:06:58.498Z,805.60
2018-01-05T08:07:58.610Z,805.66
2018-01-05T08:08:58.508Z,805.67
2018-01-05T08:09:58.523Z,805.71
2018-01-05T08:10:58.525Z,805.72
2018-01-05T08:11:58.535Z,805.73
2018-01-05T08:12:58.540Z,805.73
2018-01-05T08:13:58.545Z,805.73
2018-01-05T08:14:58.558Z,805.73
2018-01-05T08:15:58.571Z,805.73
2018-01-05T08:16:58.570Z,805.77
2018-01-05T08:17:58.581Z,805.78
2018-01-05T08:18:58.590Z,805.77
2018-01-05T08:19:58.607Z,805.79
2018-01-05T08:20:58.603Z,805.79
2018-01-05T08:21:58.619Z,805.84
2018-01-05T08:22:58.624Z,805.83
2018-01-05T08:23:58.634Z,805.84
2018-01-05T08:24:58.634Z,805.79
2018-01-05T08:25:58.642Z,805.74
2018-01-05T08:26:58.654Z,805.77
2018-01-05T08:27:58.661Z,805.75
2018-01-05T08:28:58.664Z,805.72
2018-01-05T08:29:58.680Z,805.74
2018-01-05T08:30:58.686Z,805.69
2018-01-05T08:31:58.691Z,805.69
2018-01-05T08:32:58.698Z,805.67
2018-01-05T08:33:58.713Z,805.72
2018-01-05T08:34:58.722Z,805.77
2018-01-05T08:35:58.734Z,805.78
2018-01-05T08:36:58.736Z,805.78
2018-01-05T08:37:58.740Z,805.75
2018-01-05T08:38:58.754Z,805.74
2018-01-05T08:39:58.764Z,805.70
2018-01-05T08:40:58.769Z,805.67
2018-01-05T08:41:58.775Z,805.66
2018-01-05T08:42:58.787Z,805.69
2018-01-05T08:43:58.795Z,805.63
2018-01-05T08:44:58.800Z,805.57
2018-01-05T08:45:58.805Z,805.60
2018-01-05T08:46:58.821Z,805.69
2018-01-05T08:47:58.824Z,805.70
2018-01-05T08:48:58.834Z,805.71
2018-01-05T08:49:58.840Z,805.66
2018-01-05T08:50:58.848Z,805.62
2018-01-05T08:51:58.862Z,805.59
2018-01-05T08:52:58.872Z,805.63
2018-01-05T08:53:58.880Z,805.70
2018-01-05T08:54:58.881Z,805.75
2018-01-05T08:55:58.891Z,805.80
2018-01-05T08:56:58.906Z,805.83
2018-01-05T08:57:58.909Z,805.82
2018-01-05T08:58:58.922Z,805.88
2018-01-05T08:59:58.931Z,805.92
2018-01-05T09:00:58.942Z,805.88
2018-01-05T09:01:58.947Z,805.85
2018-01-05T09:02:58.953Z,805.78
2018-01-05T09:03:58.967Z,805.76
2018-01-05T09:04:58.980Z,805.73
2018-01-05T09:05:58.992Z,805.73
2018-01-05T09:06:58.996Z,805.71
2018-01-05T09:07:59.006Z,805.71
2018-01-05T09:08:59.016Z,805.72
2018-01-05T09:09:59.023Z,805.65
2018-01-05T09:10:59.028Z,805.71
2018-01-05T09:11:59.037Z,805.73
2018-01-05T09:12:59.058Z,805.72
2018-01-05T09:13:59.058Z,805.73
2018-01-05T09:14:59.067Z,805.76
2018-01-05T09:15:59.077Z,805.79
2018-01-05T09:16:59.093Z,805.85
2018-01-05T09:17:59.098Z,805.84
2018-01-05T09:18:59.112Z,805.84
2018-01-05T09:19:59.127Z,805.82
2018-01-05T09:20:59.134Z,805.84
2018-01-05T09:21:59.141Z,805.83
2018-01-05T09:22:59.150Z,805.84
2018-01-05T09:23:59.162Z,805.80
2018-01-05T09:24:59.177Z,805.84
2018-01-05T09:25:59.188Z,805.86
2018-01-05T09:26:59.199Z,805.79
2018-01-05T09:27:59.205Z,805.80
2018-01-05T09:28:59.215Z,805.86
2018-01-05T09:29:59.224Z,805.81
2018-01-05T09:30:59.235Z,805.82
2018-01-05T09:31:59.247Z,805.84
2018-01-05T09:32:59.262Z,805.87
2018-01-05T09:33:59.272Z,805.87
2018-01-05T09:34:59.284Z,805.94
2018-01-05T09:35:59.290Z,805.96
2018-01-05T09:36:59.306Z,805.93
2018-01-05T09:37:59.318Z,805.93
2018-01-05T09:38:59.327Z,805.99
2018-01-05T09:39:59.336Z,806.04
2018-01-05T09:40:59.344Z,806.07
2018-01-05T09:41:59.358Z,806.03
2018-01-05T09:42:59.374Z,806.02
2018-01-05T09:43:59.377Z,805.98
2018-01-05T09:44:59.396Z,806.05
2018-01-05T09:45:59.446Z,806.05
2018-01-05T09:46:59.414Z,806.08
2018-01-05T09:47:59.430Z,806.06
2018-01-05T09:48:59.439Z,806.02
2018-01-05T09:49:59.455Z,806.01
2018-01-05T09:50:59.467Z,806.00
2018-01-05T09:51:59.479Z,805.99
2018-01-05T09:52:59.492Z,806.02
2018-01-05T09:53:59.503Z,806.01
2018-01-05T09:54:59.509Z,806.03
2018-01-05T09:55:59.552Z,806.03
2018-01-05T09:56:59.531Z,806.00
2018-01-05T09:57:59.548Z,805.97
2018-01-05T09:58:59.553Z,805.96
2018-01-05T09:59:59.579Z,805.95
2018-01-05T10:00:59.585Z,805.94
2018-01-05T10:01:59.598Z,805.92
2018-01-05T10:02:59.605Z,806.01
2018-01-05T10:03:59.622Z,806.06
2018-01-05T10:04:59.627Z,806.02
2018-01-05T10:05:59.645Z,806.08
2018-01-05T10:06:59.654Z,806.04
2018-01-05T10:07:59.678Z,806.08
2018-01-05T10:08:59.706Z,806.05
2018-01-05T10:09:59.699Z,806.03
2018-01-05T10:10:59.713Z,806.01
2018-01-05T10:11:59.727Z,806.08
2018-01-05T10:12:59.734Z,806.06
2018-01-05T10:13:59.748Z,806.06
2018-01-05T10:14:59.766Z,806.06
2018-01-05T10:15:59.780Z,806.09
2018-01-05T10:16:59.792Z,806.05
2018-01-05T10:17:59.803Z,806.05
2018-01-05T10:18:59.814Z,806.04
2018-01-05T10:19:59.836Z,806.00
2018-01-05T10:20:59.850Z,806.06
2018-01-05T10:21:59.866Z,806.10
2018-01-05T10:22:59.875Z,806.05
2018-01-05T10:23:59.890Z,806.00
2018-01-05T10:24:59.909Z,806.02
2018-01-05T10:25:59.923Z,805.97
2018-01-05T10:26:59.941Z,805.96
2018-01-05T10:27:59.947Z,805.97
2018-01-05T10:28:59.963Z,806.03
2018-01-05T10:29:59.975Z,806.01
2018-01-05T10:30:59.996Z,806.04
2018-01-05T10:32:00.013Z,805.99
2018-01-05T10:33:00.021Z,806.00
2018-01-05T10:34:00.053Z,806.01
2018-01-05T10:35:00.067Z,805.96
2018-01-05T10:36:00.072Z,805.97
2018-01-05T10:37:00.095Z,805.92
2018-01-05T10:38:00.106Z,805.94
2018-01-05T10:39:00.115Z,805.94
2018-01-05T10:40:00.132Z,805.88
2018-01-05T10:41:00.147Z,805.85
2018-01-05T10:42:00.166Z,805.89
2018-01-05T10:43:00.178Z,805.92
2018-01-05T10:44:00.186Z,805.99
2018-01-05T10:45:00.202Z,805.99
2018-01-05T10:46:00.224Z,806.01
2018-01-05T10:47:00.236Z,805.95
2018-01-05T10:48:00.254Z,805.95
2018-01-05T10:49:00.265Z,805.90
2018-01-05T10:50:00.282Z,805.93
2018-01-05T10:51:00.308Z,805.95
2018-01-05T10:52:00.307Z,805.90
2018-01-05T10:53:00.326Z,805.90
2018-01-05T10:54:00.343Z,805.91
2018-01-05T10:55:00.355Z,805.89
2018-01-05T10:56:00.373Z,805.91
2018-01-05T10:57:00.383Z,805.88
2018-01-05T10:58:00.403Z,805.86
2018-01-05T10:59:00.414Z,805.90
2018-01-05T11:00:00.426Z,805.85
2018-01-05T11:01:00.439Z,805.86
2018-01-05T11:02:00.456Z,805.83
2018-01-05T11:03:00.473Z,805.80
2018-01-05T11:04:00.488Z,805.80
2018-01-05T11:05:00.503Z,805.73
2018-01-05T11:06:00.518Z,805.70
2018-01-05T11:07:00.536Z,805.66
2018-01-05T11:08:00.546Z,805.64
2018-01-05T11:09:00.565Z,805.64
2018-01-05T11:10:00.575Z,805.60
2018-01-05T11:11:00.586Z,805.58
2018-01-05T11:12:00.604Z,805.56
2018-01-05T11:13:00.622Z,805.60
2018-01-05T11:14:00.635Z,805.60
2018-01-05T11:15:00.643Z,805.55
2018-01-05T11:16:00.656Z,805.53
2018-01-05T11:17:00.678Z,805.47
2018-01-05T11:18:00.684Z,805.45
2018-01-05T11:19:00.707Z,805.46
2018-01-05T11:20:00.720Z,805.53
2018-01-05T11:21:00.726Z,805.53
2018-01-05T11:22:00.746Z,805.58
2018-01-05T11:23:00.756Z,805.63
2018-01-05T11:24:00.780Z,805.56
2018-01-05T11:25:00.782Z,805.51
2018-01-05T11:26:00.802Z,805.47
2018-01-05T11:27:00.810Z,805.42
2018-01-05T11:28:00.825Z,805.45
2018-01-05T11:29:00.840Z,805.50
2018-01-05T11:30:00.853Z,805.52
2018-01-05T11:31:00.867Z,805.56
2018-01-05T11:32:00.884Z,805.59
2018-01-05T11:33:00.899Z,805.58
2018-01-05T11:34:00.906Z,805.55
2018-01-05T11:35:00.924Z,805.54
2018-01-05T11:36:00.934Z,805.55
2018-01-05T11:37:00.952Z,805.54
2018-01-05T11:38:00.963Z,805.47
2018-01-05T11:39:00.972Z,805.43
2018-01-05T11:40:00.990Z,805.50
2018-01-05T11:41:01.004Z,805.62
2018-01-05T11:42:01.012Z,805.66
2018-01-05T11:43:01.032Z,805.60
2018-01-05T11:44:01.058Z,805.50
2018-01-05T11:45:01.053Z,805.47
2018-01-05T11:46:01.074Z,805.45
2018-01-05T11:47:01.080Z,805.42
2018-01-05T11:48:01.092Z,805.41
2018-01-05T11:49:01.112Z,805.45
2018-01-05T11:50:01.129Z,805.48
2018-01-05T11:51:01.156Z,805.44
2018-01-05T11:52:01.149Z,805.38
2018-01-05T11:53:01.161Z,805.36
2018-01-05T11:54:01.169Z,805.33
2018-01-05T11:55:01.187Z,805.33
2018-01-05T11:56:01.199Z,805.33
2018-01-05T11:57:01.216Z,805.35
2018-01-05T11:58:01.223Z,805.44
2018-01-05T11:59:01.240Z,805.43
2018-01-05T12:00:01.254Z,805.31
2018-01-05T12:01:01.263Z,805.29
2018-01-05T12:02:01.280Z,805.33
2018-01-05T12:03:01.294Z,805.35
2018-01-05T12:04:01.312Z,805.29
2018-01-05T12:05:01.318Z,805.24
2018-01-05T12:06:01.328Z,805.22
2018-01-05T12:07:01.343Z,805.20
2018-01-05T12:08:01.357Z,805.15
2018-01-05T12:09:01.368Z,805.15
2018-01-05T12:10:01.397Z,805.21
2018-01-05T12:11:01.405Z,805.24
2018-01-05T12:12:01.411Z,805.22
2018-01-05T12:13:01.423Z,805.22
2018-01-05T12:14:01.436Z,805.26
2018-01-05T12:15:01.454Z,805.24
2018-01-05T12:16:01.456Z,805.27
2018-01-05T12:17:01.474Z,805.30
2018-01-05T12:18:01.485Z,805.30
2018-01-05T12:19:01.502Z,805.30
2018-01-05T12:20:01.524Z,805.24
2018-01-05T12:21:01.525Z,805.23
2018-01-05T12:22:01.542Z,805.20
2018-01-05T12:23:01.558Z,805.21
2018-01-05T12:24:01.564Z,805.28
2018-01-05T12:25:01.581Z,805.26
2018-01-05T12:26:01.589Z,805.26
2018-01-05T12:27:01.596Z,805.27
2018-01-05T12:28:01.610Z,805.23
2018-01-05T12:29:01.628Z,805.29